createdAt,value
2023-05-19T00:00:19.941Z,97784.16
2023-05-19T00:02:46.901Z,97788.81
2023-05-19T00:05:15.286Z,97785.38
2023-05-19T00:07:43.918Z,97781.50
2023-05-19T00:10:11.319Z,97786.34
2023-05-19T00:12:38.827Z,97785.97
2023-05-19T00:15:06.344Z,97786.22
2023-05-19T00:17:34.564Z,97789.66
2023-05-19T00:20:01.556Z,97793.38
2023-05-19T00:22:28.327Z,97797.84
2023-05-19T00:24:55.011Z,97794.31
2023-05-19T00:27:21.650Z,97795.53
2023-05-19T00:29:48.309Z,97796.78
2023-05-19T00:32:15.807Z,97804.78
2023-05-19T00:34:42.762Z,97798.00
2023-05-19T00:37:09.500Z,97804.75
2023-05-19T00:39:36.176Z,97801.41
2023-05-19T00:42:02.932Z,97797.72
2023-05-19T00:44:29.578Z,97807.78
2023-05-19T00:46:56.278Z,97807.19
2023-05-19T00:49:22.969Z,97812.59
2023-05-19T00:51:50.104Z,97816.91
2023-05-19T00:54:16.876Z,97824.94
2023-05-19T00:56:43.616Z,97827.22
2023-05-19T00:59:10.348Z,97823.25
2023-05-19T01:01:37.422Z,97823.75
2023-05-19T01:04:05.414Z,97818.78
2023-05-19T01:06:32.524Z,97824.88
2023-05-19T01:08:59.278Z,97821.72
2023-05-19T01:11:26.044Z,97830.72
2023-05-19T01:13:52.568Z,97827.03
2023-05-19T01:16:30.810Z,97825.09
2023-05-19T01:19:10.971Z,97824.50
2023-05-19T01:21:48.911Z,97830.78
2023-05-19T01:24:39.182Z,97827.34
2023-05-19T01:27:15.126Z,97829.03
2023-05-19T01:30:19.027Z,97825.19
2023-05-19T01:32:48.104Z,97836.38
2023-05-19T01:35:17.032Z,97831.22
2023-05-19T01:37:45.367Z,97835.44
2023-05-19T01:40:12.892Z,97826.31
2023-05-19T01:42:41.034Z,97827.34
2023-05-19T01:45:11.224Z,97821.13
2023-05-19T01:47:41.957Z,97834.03
2023-05-19T01:50:08.755Z,97822.88
2023-05-19T01:52:35.417Z,97839.03
2023-05-19T01:55:02.179Z,97840.13
2023-05-19T01:58:00.739Z,97843.16
2023-05-19T02:00:58.264Z,97849.56
2023-05-19T02:03:24.954Z,97855.47
2023-05-19T02:06:06.720Z,97853.94
2023-05-19T02:09:04.214Z,97846.75
2023-05-19T02:11:53.225Z,97844.16
2023-05-19T02:14:30.612Z,97849.72
2023-05-19T02:16:58.050Z,97854.25
2023-05-19T02:19:25.808Z,97852.22
2023-05-19T02:21:52.501Z,97854.53
2023-05-19T02:24:20.216Z,97864.47
2023-05-19T02:26:46.847Z,97865.91
2023-05-19T02:29:13.521Z,97875.59
2023-05-19T02:31:40.292Z,97870.91
2023-05-19T02:34:08.654Z,97878.78
2023-05-19T02:36:38.953Z,97878.44
2023-05-19T02:39:05.594Z,97887.78
2023-05-19T02:41:32.352Z,97891.91
2023-05-19T02:43:58.974Z,97899.53
2023-05-19T02:46:25.814Z,97897.63
2023-05-19T02:48:55.047Z,97897.56
2023-05-19T02:51:21.700Z,97899.88
2023-05-19T02:53:48.351Z,97887.84
2023-05-19T02:56:15.024Z,97885.19
2023-05-19T02:58:43.181Z,97880.72
2023-05-19T03:01:10.211Z,97889.38
2023-05-19T03:03:36.972Z,97894.88
2023-05-19T03:06:03.902Z,97891.28
2023-05-19T03:08:30.654Z,97891.03
2023-05-19T03:10:57.365Z,97891.81
2023-05-19T03:13:24.046Z,97895.16
2023-05-19T03:15:51.276Z,97895.03
2023-05-19T03:18:18.394Z,97903.97
2023-05-19T03:20:45.119Z,97897.44
2023-05-19T03:23:12.101Z,97897.22
2023-05-19T03:25:38.775Z,97899.88
2023-05-19T03:28:05.591Z,97902.19
2023-05-19T03:30:32.569Z,97902.84
2023-05-19T03:33:01.778Z,97902.00
2023-05-19T03:35:28.797Z,97904.09
2023-05-19T03:37:55.529Z,97907.81
2023-05-19T03:40:22.237Z,97911.91
2023-05-19T03:42:48.900Z,97908.41
2023-05-19T03:45:15.669Z,97910.88
2023-05-19T03:47:42.435Z,97909.44
2023-05-19T03:50:09.984Z,97913.72
2023-05-19T03:52:36.647Z,97910.28
2023-05-19T03:55:03.388Z,97912.75
2023-05-19T03:57:30.049Z,97915.19
2023-05-19T03:59:56.735Z,97919.38
2023-05-19T04:02:23.461Z,97916.78
2023-05-19T04:04:51.238Z,97922.78
2023-05-19T04:07:18.054Z,97922.53
2023-05-19T04:09:45.170Z,97922.41
2023-05-19T04:12:11.901Z,97925.75
2023-05-19T04:14:38.589Z,97928.25
2023-05-19T04:17:05.531Z,97923.34
2023-05-19T04:19:32.230Z,97922.88
2023-05-19T04:21:59.013Z,97918.88
2023-05-19T04:24:25.742Z,97923.78
2023-05-19T04:26:54.822Z,97927.91
2023-05-19T04:29:23.490Z,97933.16
2023-05-19T04:31:50.271Z,97931.06
2023-05-19T04:34:19.902Z,97934.41
2023-05-19T04:36:46.896Z,97925.84
2023-05-19T04:39:14.509Z,97925.75
2023-05-19T04:41:42.101Z,97925.38
2023-05-19T04:44:15.964Z,97926.91
2023-05-19T04:46:42.914Z,97932.91
2023-05-19T04:49:12.610Z,97930.34
2023-05-19T04:51:41.439Z,97928.81
2023-05-19T04:54:08.816Z,97938.97
2023-05-19T04:56:36.012Z,97926.75
2023-05-19T04:59:02.633Z,97936.56
2023-05-19T05:01:31.378Z,97933.69
2023-05-19T05:03:59.284Z,97939.44
2023-05-19T05:06:26.649Z,97944.16
2023-05-19T05:08:53.385Z,97947.25
2023-05-19T05:11:20.702Z,97953.31
2023-05-19T05:13:47.722Z,97954.88
2023-05-19T05:16:15.071Z,97958.19
2023-05-19T05:18:44.943Z,97952.34
2023-05-19T05:21:12.390Z,97950.16
2023-05-19T05:23:39.591Z,97953.31
2023-05-19T05:26:11.582Z,97953.31
2023-05-19T05:28:38.270Z,97954.75
2023-05-19T05:31:05.002Z,97954.34
2023-05-19T05:33:31.971Z,97957.66
2023-05-19T05:35:58.686Z,97947.94
2023-05-19T05:38:25.536Z,97945.66
2023-05-19T05:40:52.273Z,97951.78
2023-05-19T05:43:18.918Z,97952.28
2023-05-19T05:45:45.643Z,97946.09
2023-05-19T05:48:12.776Z,97951.31
2023-05-19T05:50:39.842Z,97953.84
2023-05-19T05:53:07.779Z,97945.78
2023-05-19T05:55:35.080Z,97948.53
2023-05-19T05:58:02.421Z,97947.19
2023-05-19T06:00:29.993Z,97941.03
2023-05-19T06:02:57.367Z,97948.00
2023-05-19T06:05:25.221Z,97963.41
2023-05-19T06:07:52.021Z,97960.28
2023-05-19T06:10:18.756Z,97958.34
2023-05-19T06:12:45.500Z,97964.91
2023-05-19T06:15:12.299Z,97969.59
2023-05-19T06:17:39.034Z,97966.81
2023-05-19T06:20:06.722Z,97971.66
2023-05-19T06:22:33.391Z,97971.38
2023-05-19T06:25:00.172Z,97969.84
2023-05-19T06:27:26.899Z,97963.63
2023-05-19T06:29:53.874Z,97963.63
2023-05-19T06:32:20.988Z,97963.00
2023-05-19T06:34:54.091Z,97967.16
2023-05-19T06:37:23.000Z,97971.13
2023-05-19T06:39:52.438Z,97968.13
2023-05-19T06:42:23.135Z,97970.72
2023-05-19T06:44:51.421Z,97977.78
2023-05-19T06:47:19.210Z,97972.50
2023-05-19T06:49:46.825Z,97966.09
2023-05-19T06:52:13.628Z,97973.47
2023-05-19T06:54:40.180Z,97972.22
2023-05-19T06:57:07.025Z,97977.25
2023-05-19T06:59:33.873Z,97974.28
2023-05-19T07:02:02.487Z,97973.84
2023-05-19T07:04:29.220Z,97972.63
2023-05-19T07:06:55.879Z,97971.72
2023-05-19T07:09:22.631Z,97975.19
2023-05-19T07:11:49.632Z,97964.81
2023-05-19T07:14:16.288Z,97974.25
2023-05-19T07:16:43.239Z,97977.22
2023-05-19T07:19:10.030Z,97969.44
2023-05-19T07:21:44.710Z,97977.22
2023-05-19T07:24:14.592Z,97976.34
2023-05-19T07:26:42.688Z,97972.13
2023-05-19T07:29:09.623Z,97971.75
2023-05-19T07:31:36.428Z,97971.50
2023-05-19T07:34:03.719Z,97970.88
2023-05-19T07:36:31.464Z,97970.78
2023-05-19T07:38:58.190Z,97968.72
2023-05-19T07:41:24.804Z,97965.44
2023-05-19T07:43:51.562Z,97955.91
2023-05-19T07:46:18.435Z,97964.38
2023-05-19T07:48:45.111Z,97966.28
2023-05-19T07:51:15.905Z,97960.47
2023-05-19T07:53:42.589Z,97964.31
2023-05-19T07:56:09.242Z,97953.84
2023-05-19T07:58:36.056Z,97950.69
2023-05-19T08:01:02.769Z,97960.94
2023-05-19T08:03:30.769Z,97967.56
2023-05-19T08:05:57.743Z,97953.69
2023-05-19T08:08:24.622Z,97960.50
2023-05-19T08:10:51.527Z,97958.88
2023-05-19T08:13:18.229Z,97948.53
2023-05-19T08:15:44.904Z,97962.41
2023-05-19T08:18:11.746Z,97950.41
2023-05-19T08:20:38.411Z,97954.06
2023-05-19T08:23:05.455Z,97956.97
2023-05-19T08:25:32.191Z,97953.06
2023-05-19T08:27:58.824Z,97951.09
2023-05-19T08:30:25.515Z,97946.38
2023-05-19T08:32:52.241Z,97945.66
2023-05-19T08:35:19.010Z,97948.69
2023-05-19T08:37:46.012Z,97949.53
2023-05-19T08:40:17.770Z,97948.47
2023-05-19T08:42:47.914Z,97951.16
2023-05-19T08:45:15.111Z,97945.41
2023-05-19T08:47:43.117Z,97941.38
2023-05-19T08:50:13.471Z,97942.34
2023-05-19T08:52:52.469Z,97942.72
2023-05-19T08:55:34.031Z,97939.53
2023-05-19T08:58:04.995Z,97926.13
2023-05-19T09:00:33.177Z,97927.28
2023-05-19T09:05:33.582Z,97928.38
2023-05-19T09:08:02.740Z,97932.50
2023-05-19T09:10:29.633Z,97929.44
2023-05-19T09:12:56.471Z,97922.84
2023-05-19T09:15:27.249Z,97917.47
2023-05-19T09:18:08.955Z,97919.78
2023-05-19T09:20:43.891Z,97915.97
2023-05-19T09:23:17.438Z,97913.97
2023-05-19T09:25:48.650Z,97909.38
2023-05-19T09:28:22.990Z,97910.41
2023-05-19T09:30:49.621Z,97909.75
2023-05-19T09:33:22.547Z,97909.41
2023-05-19T09:35:49.282Z,97908.47
2023-05-19T09:38:19.553Z,97907.06
2023-05-19T09:40:52.051Z,97905.94
2023-05-19T09:43:18.682Z,97905.75
2023-05-19T09:45:45.370Z,97911.31
2023-05-19T09:48:12.708Z,97904.81
2023-05-19T09:50:39.441Z,97899.00
2023-05-19T09:53:06.849Z,97893.06
2023-05-19T09:55:34.822Z,97890.19
2023-05-19T09:58:04.329Z,97893.22
2023-05-19T10:00:32.983Z,97892.09
2023-05-19T10:03:00.539Z,97887.66
2023-05-19T10:05:28.723Z,97884.41
2023-05-19T10:07:55.904Z,97882.38
2023-05-19T10:10:23.085Z,97892.34
2023-05-19T10:12:50.200Z,97887.94
2023-05-19T10:15:19.215Z,97891.66
2023-05-19T10:17:46.785Z,97887.81
2023-05-19T10:20:19.018Z,97881.41
2023-05-19T10:22:46.632Z,97895.06
2023-05-19T10:25:18.703Z,97894.06
2023-05-19T10:28:08.903Z,97891.66
2023-05-19T10:30:42.002Z,97893.78
2023-05-19T10:33:14.785Z,97892.22
2023-05-19T10:36:09.230Z,97890.59
2023-05-19T10:38:43.112Z,97890.59
2023-05-19T10:41:19.777Z,97875.31
2023-05-19T10:43:58.842Z,97865.22
2023-05-19T10:46:29.923Z,97865.91
2023-05-19T10:48:56.632Z,97857.72
2023-05-19T10:51:33.426Z,97859.56
2023-05-19T10:54:11.543Z,97862.66
2023-05-19T10:56:42.542Z,97865.63
2023-05-19T10:59:37.188Z,97855.84
2023-05-19T11:02:08.754Z,97854.72
2023-05-19T11:04:58.653Z,97833.81
2023-05-19T11:07:25.625Z,97827.13
2023-05-19T11:09:52.882Z,97833.06
2023-05-19T11:12:24.754Z,97826.66
2023-05-19T11:14:55.593Z,97833.19
2023-05-19T11:17:25.612Z,97830.34
2023-05-19T11:19:54.997Z,97824.81
2023-05-19T11:22:28.558Z,97820.78
2023-05-19T11:24:55.937Z,97822.44
2023-05-19T11:27:33.515Z,97817.38
2023-05-19T11:30:13.297Z,97822.13
2023-05-19T11:32:42.554Z,97814.25
2023-05-19T11:35:10.269Z,97824.41
2023-05-19T11:37:37.300Z,97816.66
2023-05-19T11:40:07.866Z,97816.59
2023-05-19T11:42:36.190Z,97815.34
2023-05-19T11:45:04.342Z,97815.38
2023-05-19T11:47:42.004Z,97801.97
2023-05-19T11:50:14.318Z,97799.38
2023-05-19T11:52:45.150Z,97794.50
2023-05-19T11:55:16.576Z,97798.03
2023-05-19T11:58:04.937Z,97797.97
2023-05-19T12:00:39.430Z,97791.09
2023-05-19T12:03:07.638Z,97787.25
2023-05-19T12:05:42.070Z,97784.88
2023-05-19T12:08:11.023Z,97780.47
2023-05-19T12:10:38.828Z,97784.28
2023-05-19T12:13:09.003Z,97784.84
2023-05-19T12:15:36.559Z,97782.25
2023-05-19T12:18:03.999Z,97785.94
2023-05-19T12:20:32.661Z,97786.25
2023-05-19T12:23:10.360Z,97784.16
2023-05-19T12:25:38.506Z,97778.44
2023-05-19T12:28:05.629Z,97784.47
2023-05-19T12:30:33.796Z,57215.63
2023-05-19T12:33:02.387Z,57215.63
2023-05-19T12:35:34.222Z,57215.63
2023-05-19T12:38:07.195Z,57215.63
2023-05-19T12:40:40.507Z,57215.63
2023-05-19T12:43:07.908Z,57215.63
2023-05-19T12:45:36.228Z,57215.63
2023-05-19T12:48:05.624Z,57215.63
2023-05-19T12:50:34.381Z,57215.63
2023-05-19T12:53:01.611Z,57215.63
2023-05-19T12:55:30.085Z,57215.63
2023-05-19T12:57:58.321Z,57215.63
2023-05-19T13:00:28.667Z,57215.63
2023-05-19T13:03:06.626Z,57215.63
2023-05-19T13:05:38.073Z,57215.63
2023-05-19T13:08:07.740Z,57215.63
2023-05-19T13:10:35.889Z,57215.63
2023-05-19T13:13:03.562Z,57215.63
2023-05-19T13:15:34.623Z,57215.63
2023-05-19T13:18:12.374Z,57215.63
2023-05-19T13:20:40.712Z,57215.63
2023-05-19T13:23:07.873Z,57215.63
2023-05-19T13:25:34.748Z,57215.63
2023-05-19T13:28:08.089Z,57215.63
2023-05-19T13:30:37.049Z,57215.63
2023-05-19T13:33:07.208Z,57215.63
2023-05-19T13:35:37.914Z,57215.63
2023-05-19T13:38:06.183Z,57215.63
2023-05-19T13:40:34.980Z,57215.63
2023-05-19T13:43:03.062Z,57215.63
2023-05-19T13:45:29.892Z,57215.63
2023-05-19T13:47:57.066Z,57215.63
2023-05-19T13:50:23.893Z,57215.63
2023-05-19T13:52:50.677Z,57215.63
2023-05-19T13:55:17.788Z,57215.63
2023-05-19T13:57:44.935Z,57215.63
2023-05-19T14:00:11.972Z,57215.63
2023-05-19T14:02:39.325Z,57215.63
2023-05-19T14:05:07.422Z,57215.63
2023-05-19T14:07:35.203Z,57215.63
2023-05-19T14:10:03.173Z,57215.63
2023-05-19T14:12:37.972Z,57215.63
2023-05-19T14:15:11.558Z,57215.63
2023-05-19T14:17:41.682Z,57215.63
2023-05-19T14:20:09.647Z,57215.63
2023-05-19T14:22:36.448Z,57215.63
2023-05-19T14:25:03.767Z,57215.63
2023-05-19T14:27:30.456Z,57215.63
2023-05-19T14:29:57.254Z,57215.63
2023-05-19T14:32:24.454Z,57215.63
2023-05-19T14:34:56.596Z,57215.63
2023-05-19T14:37:23.305Z,57215.63
2023-05-19T14:39:49.972Z,57215.63
2023-05-19T14:42:16.609Z,57215.63
2023-05-19T14:44:43.262Z,57215.63
2023-05-19T14:47:11.447Z,57215.63
2023-05-19T14:49:38.407Z,57215.63
2023-05-19T14:52:05.282Z,57215.63
2023-05-19T14:54:31.995Z,57215.63
2023-05-19T14:56:58.682Z,57215.63
2023-05-19T14:59:25.574Z,57215.63
2023-05-19T15:01:52.279Z,57215.63
2023-05-19T15:04:19.158Z,57215.63
2023-05-19T15:06:48.237Z,57215.63
2023-05-19T15:09:19.136Z,57215.63
2023-05-19T15:11:53.061Z,57215.63
2023-05-19T15:14:19.801Z,57215.63
2023-05-19T15:16:46.568Z,57215.63
2023-05-19T15:19:13.230Z,57215.63
2023-05-19T15:21:40.028Z,57215.63
2023-05-19T15:24:07.151Z,57215.63
2023-05-19T15:26:36.785Z,57215.63
2023-05-19T15:29:03.756Z,57215.63
2023-05-19T15:31:30.788Z,57215.63
2023-05-19T15:33:59.958Z,57215.63
2023-05-19T15:36:32.116Z,57215.63
2023-05-19T15:38:58.772Z,57215.63
2023-05-19T15:41:25.845Z,57215.63
2023-05-19T15:43:53.668Z,57215.63
2023-05-19T15:46:20.582Z,57215.63
2023-05-19T15:48:47.458Z,57215.63
2023-05-19T15:51:14.341Z,57215.63
2023-05-19T15:53:41.160Z,57215.63
2023-05-19T15:56:07.946Z,57215.63
2023-05-19T15:58:34.597Z,57215.63
2023-05-19T16:01:01.449Z,57215.63
2023-05-19T16:03:28.488Z,57215.63
2023-05-19T16:05:55.493Z,57215.63
2023-05-19T16:08:22.450Z,57215.63
2023-05-19T16:10:49.248Z,57215.63
2023-05-19T16:13:15.908Z,57215.63
2023-05-19T16:15:45.247Z,57215.63
2023-05-19T16:18:12.021Z,57215.63
2023-05-19T16:20:38.965Z,57215.63
2023-05-19T16:23:05.690Z,57215.63
2023-05-19T16:25:32.848Z,57215.63
2023-05-19T16:27:59.768Z,57215.63
2023-05-19T16:30:28.045Z,57215.63
2023-05-19T16:32:54.881Z,57215.63
2023-05-19T16:35:24.642Z,57215.63
2023-05-19T16:37:51.422Z,57215.63
2023-05-19T16:40:18.481Z,57215.63
2023-05-19T16:42:45.342Z,57215.63
2023-05-19T16:45:12.132Z,57215.63
2023-05-19T16:47:40.220Z,57215.63
2023-05-19T16:50:10.044Z,57215.63
2023-05-19T16:52:37.123Z,57215.63
2023-05-19T16:55:04.026Z,57215.63
2023-05-19T16:57:32.234Z,57215.63
2023-05-19T16:59:58.941Z,57215.63
2023-05-19T17:02:25.958Z,57215.63
2023-05-19T17:04:56.091Z,57215.63
2023-05-19T17:07:22.738Z,57215.63
2023-05-19T17:09:49.384Z,57215.63
2023-05-19T17:12:16.013Z,57215.63
2023-05-19T17:14:45.155Z,57215.63
2023-05-19T17:17:12.003Z,57215.63
2023-05-19T17:19:41.048Z,57215.63
2023-05-19T17:22:07.717Z,57215.63
2023-05-19T17:24:35.594Z,57215.63
2023-05-19T17:27:05.380Z,57215.63
2023-05-19T17:29:31.961Z,57215.63
2023-05-19T17:31:58.730Z,57215.63
2023-05-19T17:34:25.452Z,57215.63
2023-05-19T17:36:52.079Z,57215.63
2023-05-19T17:39:20.230Z,57215.63
2023-05-19T17:41:46.935Z,57215.63
2023-05-19T17:44:13.632Z,57215.63
2023-05-19T17:46:40.320Z,57215.63
2023-05-19T17:49:07.388Z,57215.63
2023-05-19T17:51:34.352Z,57215.63
2023-05-19T17:54:01.387Z,57215.63
2023-05-19T17:56:33.116Z,57215.63
2023-05-19T17:59:00.245Z,57215.63
2023-05-19T18:01:27.207Z,57215.63
2023-05-19T18:03:54.387Z,57215.63
2023-05-19T18:06:21.754Z,57215.63
2023-05-19T18:08:50.681Z,57215.63
2023-05-19T18:11:18.490Z,57215.63
2023-05-19T18:13:45.200Z,57215.63
2023-05-19T18:16:12.890Z,57215.63
2023-05-19T18:18:43.524Z,57215.63
2023-05-19T18:21:17.676Z,57215.63
2023-05-19T18:23:45.454Z,57215.63
2023-05-19T18:26:15.897Z,57215.63
2023-05-19T18:28:43.418Z,57215.63
2023-05-19T18:31:15.720Z,57215.63
2023-05-19T18:33:43.713Z,57215.63
2023-05-19T18:36:10.572Z,57215.63
2023-05-19T18:38:37.158Z,57215.63
2023-05-19T18:41:06.878Z,57215.63
2023-05-19T18:43:34.460Z,57215.63
2023-05-19T18:46:01.380Z,57215.63
2023-05-19T18:48:28.174Z,57215.63
2023-05-19T18:50:54.844Z,57215.63
2023-05-19T18:53:22.699Z,57215.63
2023-05-19T18:55:49.407Z,57215.63
2023-05-19T18:58:18.480Z,57215.63
2023-05-19T19:00:45.181Z,57215.63
2023-05-19T19:03:12.062Z,57215.63
2023-05-19T19:07:59.158Z,97979.28
2023-05-19T19:10:26.000Z,97965.63
2023-05-19T19:12:52.662Z,97975.25
2023-05-19T19:15:19.348Z,97966.78
2023-05-19T19:17:46.380Z,97969.47
2023-05-19T19:20:13.367Z,97961.75
2023-05-19T19:22:40.073Z,97964.84
2023-05-19T19:25:07.064Z,97967.94
2023-05-19T19:27:35.720Z,97965.69
2023-05-19T19:30:02.604Z,97968.13
2023-05-19T19:32:32.651Z,97974.91
2023-05-19T19:34:59.381Z,97976.81
2023-05-19T19:37:26.103Z,97977.38
2023-05-19T19:39:52.789Z,97977.88
2023-05-19T19:42:19.659Z,97995.38
2023-05-19T19:44:46.298Z,97984.31
2023-05-19T19:47:12.946Z,97993.47
2023-05-19T19:49:39.664Z,97991.59
2023-05-19T19:52:06.404Z,97995.16
2023-05-19T19:54:33.147Z,97993.00
2023-05-19T19:56:59.853Z,97991.94
2023-05-19T19:59:27.005Z,97990.25
2023-05-19T20:01:53.756Z,97986.03
2023-05-19T20:04:20.728Z,97994.03
2023-05-19T20:06:47.594Z,98002.16
2023-05-19T20:09:14.314Z,98005.66
2023-05-19T20:11:40.870Z,98014.16
2023-05-19T20:14:07.548Z,98016.72
2023-05-19T20:16:34.295Z,98015.72
2023-05-19T20:19:01.614Z,98017.22
2023-05-19T20:21:28.447Z,98012.47
2023-05-19T20:23:55.122Z,98015.00
2023-05-19T20:26:22.535Z,98027.38
2023-05-19T20:28:49.231Z,98022.41
2023-05-19T20:31:15.940Z,98027.38
2023-05-19T20:33:42.658Z,98018.94
2023-05-19T20:36:10.945Z,98019.44
2023-05-19T20:38:37.728Z,98028.50
2023-05-19T20:41:04.609Z,98020.88
2023-05-19T20:43:32.466Z,98024.78
2023-05-19T20:45:59.922Z,98023.47
2023-05-19T20:48:26.805Z,98031.97
2023-05-19T20:50:54.479Z,98024.66
2023-05-19T20:53:21.887Z,98031.97
2023-05-19T20:55:48.616Z,98025.19
2023-05-19T20:58:15.548Z,98028.84
2023-05-19T21:00:42.237Z,98033.78
2023-05-19T21:03:09.097Z,98030.50
2023-05-19T21:05:36.486Z,98030.50
2023-05-19T21:08:03.348Z,98029.66
2023-05-19T21:10:29.997Z,98026.13
2023-05-19T21:12:58.844Z,98021.50
2023-05-19T21:15:27.005Z,98024.00
2023-05-19T21:17:53.872Z,98009.25
2023-05-19T21:20:20.661Z,98019.75
2023-05-19T21:22:47.321Z,98024.53
2023-05-19T21:25:14.053Z,98026.41
2023-05-19T21:27:40.682Z,98019.97
2023-05-19T21:30:08.055Z,98020.31
2023-05-19T21:32:34.816Z,98023.81
2023-05-19T21:35:01.626Z,98017.03
2023-05-19T21:37:28.292Z,98020.81
2023-05-19T21:39:54.925Z,98030.84
2023-05-19T21:42:21.642Z,98033.44
2023-05-19T21:44:48.335Z,98045.63
2023-05-19T21:47:15.074Z,98044.34
2023-05-19T21:49:41.804Z,98047.53
2023-05-19T21:52:08.906Z,98051.03
2023-05-19T21:54:36.202Z,98045.88
2023-05-19T21:57:02.948Z,98055.91
2023-05-19T21:59:29.667Z,98065.84
2023-05-19T22:01:56.467Z,98060.31
2023-05-19T22:04:23.204Z,98059.94
2023-05-19T22:06:49.864Z,98056.59
2023-05-19T22:09:16.735Z,98057.03
2023-05-19T22:11:43.425Z,98057.81
2023-05-19T22:14:10.034Z,98054.63
2023-05-19T22:16:36.742Z,98068.56
2023-05-19T22:19:03.592Z,98067.41
2023-05-19T22:21:31.240Z,98064.16
2023-05-19T22:23:57.912Z,98066.84
2023-05-19T22:26:24.621Z,98071.44
2023-05-19T22:28:51.447Z,98072.81
2023-05-19T22:31:18.134Z,98072.13
2023-05-19T22:33:45.002Z,98071.16
2023-05-19T22:36:11.685Z,98062.75
2023-05-19T22:38:38.388Z,98068.50
2023-05-19T22:41:05.263Z,98069.25
2023-05-19T22:43:31.902Z,98076.69
2023-05-19T22:45:58.581Z,98069.66
2023-05-19T22:48:25.524Z,98062.59
2023-05-19T22:50:52.355Z,98059.16
2023-05-19T22:53:18.976Z,98055.13
2023-05-19T22:55:45.686Z,98061.69
2023-05-19T22:58:12.375Z,98058.50
2023-05-19T23:00:39.059Z,98058.66
2023-05-19T23:03:05.805Z,98044.75
2023-05-19T23:05:32.637Z,98048.44
2023-05-19T23:07:59.407Z,98049.69
2023-05-19T23:10:26.135Z,98047.63
2023-05-19T23:12:52.846Z,98048.06
2023-05-19T23:15:19.480Z,98044.66
2023-05-19T23:17:46.104Z,98044.69
2023-05-19T23:20:13.495Z,98038.16
2023-05-19T23:22:40.161Z,98028.84
2023-05-19T23:25:07.944Z,98026.81
2023-05-19T23:27:35.812Z,98022.13
2023-05-19T23:30:02.891Z,98023.00
2023-05-19T23:32:29.686Z,98025.03
2023-05-19T23:34:56.399Z,98026.31
2023-05-19T23:37:23.064Z,98019.88
2023-05-19T23:39:49.753Z,98019.72
2023-05-19T23:42:16.380Z,98009.63
2023-05-19T23:44:42.951Z,98002.50
2023-05-19T23:47:09.805Z,98008.72
2023-05-19T23:49:36.633Z,98007.88
2023-05-19T23:52:03.394Z,98014.03
2023-05-19T23:54:30.691Z,98005.91
2023-05-19T23:56:58.457Z,98009.00
2023-05-19T23:59:25.403Z,98006.13
